createdAt,value
2019-04-21T00:00:06.240Z,88.10
2019-04-21T00:05:25.943Z,80.70
2019-04-21T00:10:23.385Z,85.00
2019-04-21T00:15:14.547Z,78.90
2019-04-21T00:20:12.672Z,76.40
2019-04-21T00:30:21.404Z,73.10
2019-04-21T00:35:07.712Z,70.90
2019-04-21T00:40:22.222Z,72.60
2019-04-21T00:45:16.222Z,62.40
2019-04-21T00:50:25.697Z,59.10
2019-04-21T00:55:29.282Z,60.30
2019-04-21T01:05:18.654Z,60.90
2019-04-21T01:10:15.030Z,60.70
2019-04-21T01:15:32.746Z,61.50
2019-04-21T01:20:12.978Z,57.50
2019-04-21T01:25:08.940Z,55.50
2019-04-21T01:30:24.939Z,55.30
2019-04-21T01:35:21.509Z,53.20
2019-04-21T01:40:27.321Z,56.30
2019-04-21T01:45:21.590Z,51.90
2019-04-21T01:50:14.301Z,55.10
2019-04-21T01:55:25.107Z,56.30
2019-04-21T02:00:10.402Z,48.70
2019-04-21T02:05:25.865Z,48.30
2019-04-21T02:10:27.015Z,47.90
2019-04-21T02:15:25.058Z,46.60
2019-04-21T02:20:16.636Z,50.00
2019-04-21T02:30:36.088Z,49.20
2019-04-21T02:35:34.096Z,48.30
2019-04-21T03:20:35.793Z,0.00
2019-04-21T03:25:33.797Z,84.50
2019-04-21T03:30:59.543Z,57.60
2019-04-21T03:40:27.340Z,57.20
2019-04-21T03:50:33.078Z,57.00
2019-04-21T04:00:50.266Z,56.10
2019-04-21T04:05:49.346Z,56.80
2019-04-21T04:10:32.039Z,53.80
2019-04-21T04:15:39.474Z,53.40
2019-04-21T04:25:25.258Z,51.90
2019-04-21T04:30:33.949Z,49.80
2019-04-21T04:35:26.292Z,49.60
2019-04-21T04:40:30.916Z,48.40
2019-04-21T04:45:38.704Z,49.40
2019-04-21T04:55:33.775Z,45.40
2019-04-21T05:00:34.857Z,45.10
2019-04-21T05:05:36.284Z,43.10
2019-04-21T05:15:16.177Z,44.80
2019-04-21T05:20:26.160Z,45.60
2019-04-21T05:25:20.844Z,58.60
2019-04-21T05:30:30.680Z,61.80
2019-04-21T05:35:24.563Z,61.30
2019-04-21T05:40:17.404Z,51.60
2019-04-21T05:45:24.198Z,51.60
2019-04-21T05:50:19.404Z,47.00
2019-04-21T05:55:24.663Z,45.10
2019-04-21T06:05:28.395Z,42.30
2019-04-21T06:10:27.136Z,47.20
2019-04-21T06:15:19.807Z,44.20
2019-04-21T06:20:21.077Z,37.50
2019-04-21T06:30:28.952Z,40.70
2019-04-21T06:35:37.776Z,34.10
2019-04-21T06:40:23.124Z,27.90
2019-04-21T06:50:22.671Z,24.40
2019-04-21T06:55:31.189Z,23.00
2019-04-21T07:00:22.384Z,23.40
2019-04-21T07:05:31.095Z,20.20
2019-04-21T07:10:20.995Z,16.40
2019-04-21T07:15:28.294Z,15.80
2019-04-21T07:20:21.473Z,13.70
2019-04-21T07:25:22.550Z,13.60
2019-04-21T07:30:28.018Z,13.60
2019-04-21T07:35:20.737Z,12.10
2019-04-21T07:40:13.495Z,13.60
2019-04-21T07:45:18.014Z,19.00
2019-04-21T07:50:24.197Z,10.30
2019-04-21T08:00:31.130Z,11.20
2019-04-21T08:05:23.897Z,9.30
2019-04-21T08:10:23.022Z,9.60
2019-04-21T08:15:31.027Z,9.00
2019-04-21T08:20:18.731Z,8.20
2019-04-21T08:25:19.543Z,8.30
2019-04-21T08:30:26.154Z,8.30
2019-04-21T08:40:26.241Z,13.30
2019-04-21T08:45:25.486Z,8.60
2019-04-21T08:50:20.928Z,8.70
2019-04-21T08:55:25.316Z,9.30
2019-04-21T09:00:19.775Z,21.60
2019-04-21T09:05:17.726Z,8.40
2019-04-21T09:10:26.945Z,7.90
2019-04-21T09:15:20.253Z,8.30
2019-04-21T09:20:26.553Z,7.80
2019-04-21T09:25:26.513Z,7.30
2019-04-21T09:30:04.920Z,7.40
2019-04-21T09:35:05.683Z,9.60
2019-04-21T09:40:02.587Z,6.60
2019-04-21T09:45:04.138Z,5.30
2019-04-21T09:50:02.799Z,5.10
2019-04-21T09:55:06.973Z,4.40
2019-04-21T10:00:08.826Z,4.80
2019-04-21T10:05:01.912Z,4.80
2019-04-21T10:10:01.513Z,4.90
2019-04-21T10:15:01.922Z,5.90
2019-04-21T10:20:01.103Z,5.10
2019-04-21T10:25:02.847Z,5.00
2019-04-21T10:30:03.575Z,5.10
2019-04-21T10:35:01.541Z,5.70
2019-04-21T10:40:01.170Z,5.50
2019-04-21T10:45:03.316Z,16.20
2019-04-21T10:50:02.409Z,6.10
2019-04-21T10:55:19.136Z,5.70
2019-04-21T11:00:01.514Z,5.70
2019-04-21T11:05:02.701Z,5.90
2019-04-21T11:10:02.491Z,5.40
2019-04-21T11:30:02.342Z,20.50
2019-04-21T11:45:01.327Z,5.90
2019-04-21T16:35:05.353Z,4.60
2019-04-21T16:45:01.125Z,4.50
2019-04-21T16:55:03.460Z,4.60
2019-04-21T17:05:02.498Z,4.50
2019-04-21T17:35:01.928Z,4.10
2019-04-21T17:50:03.148Z,4.20
2019-04-21T18:25:07.036Z,4.90
2019-04-21T18:45:40.279Z,4.90
2019-04-21T19:05:09.109Z,5.40
2019-04-21T19:40:13.203Z,5.80
2019-04-21T19:55:02.497Z,5.70
2019-04-21T20:30:21.058Z,6.10
2019-04-21T20:55:15.536Z,6.80
2019-04-21T21:10:16.923Z,6.60
2019-04-21T21:25:29.026Z,6.80
2019-04-21T21:45:08.757Z,7.30
2019-04-21T22:05:07.257Z,7.00
2019-04-21T22:25:10.014Z,8.40
